Time;durP1;ratioP1;P1;durP2;ratioP2;P2;SDS_P1;SDS_P2;PMS_P1;PMS_P2;Temp;Humidity;BMP_temperature;BMP_pressure;BME280_temperature;BME280_humidity;BME280_pressure;Samples;Min_cycle;Max_cycle;Signal;HPM_P1;HPM_P2
2024/01/12 00:01:44;;;;;;;11.70;8.50;;;21.90;99.90;;;;;;5054009;28;20048;-50
2024/01/12 00:04:10;;;;;;;12.40;8.68;;;21.80;99.90;;;;;;5054471;28;20025;-50
2024/01/12 00:06:36;;;;;;;16.17;8.63;;;21.80;99.90;;;;;;5036250;28;20447;-50
2024/01/12 00:09:03;;;;;;;16.58;8.07;;;21.80;99.90;;;;;;5054373;28;20062;-50
2024/01/12 00:11:29;;;;;;;15.52;8.65;;;21.80;99.90;;;;;;5054054;28;20100;-50
2024/01/12 00:13:55;;;;;;;12.68;7.85;;;21.80;99.90;;;;;;5054059;28;20449;-50
2024/01/12 00:16:21;;;;;;;13.32;8.27;;;21.80;99.90;;;;;;5052874;28;20017;-51
2024/01/12 00:18:47;;;;;;;14.00;8.40;;;21.80;99.90;;;;;;5053812;28;20059;-50
2024/01/12 00:21:13;;;;;;;11.85;7.15;;;21.80;99.90;;;;;;5053673;28;20397;-51
2024/01/12 00:23:39;;;;;;;12.70;7.93;;;21.80;99.90;;;;;;5054070;28;20440;-51
2024/01/12 00:26:05;;;;;;;13.60;8.50;;;21.70;99.90;;;;;;5054232;28;20112;-52
2024/01/12 00:28:30;;;;;;;13.43;7.65;;;21.70;99.90;;;;;;5053823;28;20029;-51
2024/01/12 00:30:56;;;;;;;12.98;7.95;;;21.70;99.90;;;;;;5053887;28;20720;-51
2024/01/12 00:33:22;;;;;;;9.45;7.00;;;21.70;99.90;;;;;;5041616;28;20032;-50
2024/01/12 00:35:48;;;;;;;14.13;8.13;;;21.70;99.90;;;;;;5052461;28;20033;-51
2024/01/12 00:38:14;;;;;;;12.93;8.30;;;21.70;99.90;;;;;;5053703;28;20033;-50
2024/01/12 00:40:40;;;;;;;14.07;7.68;;;21.70;99.90;;;;;;5051661;28;20033;-50
2024/01/12 00:43:07;;;;;;;11.60;6.95;;;21.70;99.90;;;;;;5053359;28;20388;-51
2024/01/12 00:45:33;;;;;;;13.73;8.02;;;21.70;99.90;;;;;;5053436;28;20095;-50
2024/01/12 00:47:59;;;;;;;11.88;7.28;;;21.60;99.90;;;;;;5053604;28;20033;-51
2024/01/12 00:50:25;;;;;;;11.75;7.63;;;21.70;99.90;;;;;;5052012;28;20084;-51
2024/01/12 00:52:51;;;;;;;13.23;6.93;;;21.60;99.90;;;;;;5052270;28;20477;-51
2024/01/12 00:55:17;;;;;;;10.45;7.55;;;21.60;99.90;;;;;;5048899;28;20021;-51
2024/01/12 00:57:43;;;;;;;10.95;7.32;;;21.60;99.90;;;;;;5041667;28;20616;-51
2024/01/12 01:00:09;;;;;;;11.52;7.57;;;21.60;99.90;;;;;;5043849;28;20123;-51
2024/01/12 01:02:35;;;;;;;12.80;7.72;;;21.60;99.90;;;;;;5037289;28;20136;-51
2024/01/12 01:05:02;;;;;;;11.55;6.43;;;21.60;99.90;;;;;;5048843;28;20108;-51
2024/01/12 01:07:28;;;;;;;9.05;6.57;;;21.50;99.90;;;;;;5040058;28;20030;-50
2024/01/12 01:09:54;;;;;;;13.30;7.53;;;21.60;99.90;;;;;;5052453;28;20100;-51
2024/01/12 01:12:20;;;;;;;12.40;7.53;;;21.50;99.90;;;;;;5052717;28;20092;-51
2024/01/12 01:14:46;;;;;;;10.77;6.57;;;21.50;99.90;;;;;;5052971;28;20028;-50
2024/01/12 01:17:12;;;;;;;10.68;6.55;;;21.50;99.90;;;;;;5052012;28;20021;-49
2024/01/12 01:19:38;;;;;;;12.85;6.72;;;21.50;99.90;;;;;;5052728;28;20029;-50
2024/01/12 01:22:05;;;;;;;12.07;6.72;;;21.50;99.90;;;;;;5052955;28;20420;-50
2024/01/12 01:24:31;;;;;;;9.23;6.15;;;21.50;99.90;;;;;;5052912;28;20025;-50
2024/01/12 01:26:57;;;;;;;10.13;6.78;;;21.50;99.90;;;;;;5052618;28;20017;-50
2024/01/12 01:29:23;;;;;;;9.60;6.40;;;21.40;99.90;;;;;;5051023;28;20101;-50
2024/01/12 01:31:49;;;;;;;14.07;7.35;;;21.50;99.90;;;;;;5051270;28;20033;-49
2024/01/12 01:34:16;;;;;;;11.95;6.78;;;21.40;99.90;;;;;;5046760;28;20032;-51
2024/01/12 01:36:42;;;;;;;12.32;6.45;;;21.40;99.90;;;;;;5049838;28;20029;-51
2024/01/12 01:39:08;;;;;;;10.63;7.05;;;21.40;99.90;;;;;;5043333;28;20032;-50
2024/01/12 01:41:35;;;;;;;9.20;6.72;;;21.40;99.90;;;;;;5051101;28;20385;-50
2024/01/12 01:44:01;;;;;;;8.77;6.13;;;21.40;99.90;;;;;;5052302;28;20507;-50
2024/01/12 01:46:28;;;;;;;10.27;6.78;;;21.40;99.90;;;;;;5052081;28;20108;-50
2024/01/12 01:48:54;;;;;;;12.40;6.43;;;21.40;99.90;;;;;;5051408;28;20055;-50
2024/01/12 01:51:20;;;;;;;10.30;6.15;;;21.40;99.90;;;;;;5051531;28;20025;-50
2024/01/12 01:53:47;;;;;;;10.05;6.22;;;21.40;99.90;;;;;;5052247;28;20013;-50
2024/01/12 01:56:13;;;;;;;8.48;5.50;;;21.30;99.90;;;;;;5051686;28;20120;-50
2024/01/12 01:58:42;;;;;;;10.15;6.40;;;21.40;99.90;;;;;;5052209;28;20025;-50
2024/01/12 02:01:10;;;;;;;10.18;6.32;;;21.30;99.90;;;;;;5070620;22;20485;-59
2024/01/12 02:03:38;;;;;;;13.65;5.75;;;21.30;99.90;;;;;;5011025;28;20033;-58
2024/01/12 02:06:05;;;;;;;11.15;5.60;;;21.30;99.90;;;;;;5010754;28;20036;-58
2024/01/12 02:08:31;;;;;;;11.80;5.78;;;21.30;99.90;;;;;;5012631;28;20030;-59
2024/01/12 02:10:56;;;;;;;9.15;5.93;;;21.30;99.90;;;;;;5012675;28;20025;-58
2024/01/12 02:13:23;;;;;;;10.55;5.78;;;21.30;99.90;;;;;;5005586;28;20434;-57
2024/01/12 02:15:49;;;;;;;12.93;6.05;;;21.30;99.90;;;;;;5010744;28;20086;-55
2024/01/12 02:18:15;;;;;;;10.40;5.95;;;21.30;99.90;;;;;;5012640;28;20045;-55
2024/01/12 02:20:41;;;;;;;16.35;5.95;;;21.20;99.90;;;;;;5011940;28;20022;-55
2024/01/12 02:23:07;;;;;;;10.27;5.40;;;21.20;99.90;;;;;;5005008;28;20030;-57
2024/01/12 02:25:33;;;;;;;8.85;5.28;;;21.20;99.90;;;;;;5025310;28;20034;-56
2024/01/12 02:28:00;;;;;;;13.43;5.57;;;21.20;99.90;;;;;;5010666;28;20390;-60
2024/01/12 02:30:26;;;;;;;8.43;5.55;;;21.20;99.90;;;;;;5012344;28;20454;-59
2024/01/12 02:32:51;;;;;;;16.85;6.00;;;21.20;99.90;;;;;;5010870;28;20438;-60
2024/01/12 02:35:17;;;;;;;10.57;5.65;;;21.10;99.90;;;;;;5011934;28;20030;-59
2024/01/12 02:37:43;;;;;;;8.25;5.20;;;21.10;99.90;;;;;;5012272;28;20378;-60
2024/01/12 02:40:09;;;;;;;10.00;5.43;;;21.10;99.90;;;;;;5011636;28;20028;-58
2024/01/12 02:42:35;;;;;;;9.60;5.45;;;21.10;99.90;;;;;;5010794;28;20072;-57
2024/01/12 02:45:01;;;;;;;10.57;5.88;;;21.10;99.90;;;;;;5011477;28;20057;-60
2024/01/12 02:47:26;;;;;;;9.00;5.40;;;21.10;99.90;;;;;;5010026;28;20038;-61
2024/01/12 02:49:52;;;;;;;12.32;5.85;;;21.00;99.90;;;;;;5010572;28;20184;-57
2024/01/12 02:52:18;;;;;;;7.95;5.05;;;21.10;99.90;;;;;;5012120;28;20036;-59
2024/01/12 02:54:44;;;;;;;9.73;5.40;;;21.00;99.90;;;;;;5010793;28;20096;-58
2024/01/12 02:57:10;;;;;;;10.90;5.30;;;21.00;99.90;;;;;;5011675;28;20083;-57
2024/01/12 02:59:35;;;;;;;8.10;4.93;;;21.00;99.90;;;;;;5011906;28;20088;-56
2024/01/12 03:02:01;;;;;;;13.98;6.22;;;21.00;99.90;;;;;;5024014;23;20069;-45
2024/01/12 03:04:27;;;;;;;10.93;6.28;;;21.00;99.90;;;;;;5011630;28;20036;-45
2024/01/12 03:06:53;;;;;;;8.27;5.22;;;21.00;99.90;;;;;;5011738;28;20018;-44
2024/01/12 03:09:19;;;;;;;8.57;5.40;;;21.00;99.90;;;;;;5010783;28;20058;-45
2024/01/12 03:11:44;;;;;;;10.50;5.63;;;21.00;99.90;;;;;;5011958;28;20072;-45
2024/01/12 03:14:10;;;;;;;8.68;5.18;;;21.00;99.90;;;;;;5011658;28;20026;-44
2024/01/12 03:16:36;;;;;;;8.65;5.50;;;21.00;99.90;;;;;;5011879;28;20022;-45
2024/01/12 03:19:02;;;;;;;9.95;5.78;;;21.00;99.90;;;;;;5011706;28;20105;-45
2024/01/12 03:21:27;;;;;;;10.00;5.82;;;21.00;99.90;;;;;;5011245;28;20050;-46
2024/01/12 03:23:53;;;;;;;9.05;5.43;;;21.00;99.90;;;;;;5001267;28;20046;-46
2024/01/12 03:26:19;;;;;;;9.50;5.60;;;20.90;99.90;;;;;;5011614;28;20026;-47
2024/01/12 03:28:45;;;;;;;9.98;5.15;;;20.90;99.90;;;;;;5012044;28;20014;-47
2024/01/12 03:31:10;;;;;;;9.55;6.22;;;20.90;99.90;;;;;;5010546;28;20026;-46
2024/01/12 03:33:37;;;;;;;8.65;5.72;;;20.90;99.90;;;;;;5008318;28;20131;-46
2024/01/12 03:36:06;;;;;;;12.15;5.43;;;20.90;99.90;;;;;;5009478;28;20029;-45
2024/01/12 03:38:32;;;;;;;10.80;5.82;;;20.90;99.90;;;;;;5007610;28;20032;-46
2024/01/12 03:40:58;;;;;;;12.20;5.55;;;20.90;99.90;;;;;;4992985;28;20117;-46
2024/01/12 03:43:23;;;;;;;10.45;5.82;;;20.90;99.90;;;;;;5004176;28;20397;-46
2024/01/12 03:45:49;;;;;;;7.60;5.32;;;20.90;99.90;;;;;;4993884;28;20089;-46
2024/01/12 03:48:15;;;;;;;9.80;5.50;;;20.90;99.90;;;;;;5006954;28;20462;-46
2024/01/12 03:50:41;;;;;;;9.18;5.63;;;20.80;99.90;;;;;;5009593;28;20032;-46
2024/01/12 03:53:07;;;;;;;9.98;6.03;;;20.80;99.90;;;;;;5012810;28;20033;-47
2024/01/12 03:55:32;;;;;;;9.85;5.95;;;20.80;99.90;;;;;;5014444;28;20022;-46
2024/01/12 03:57:58;;;;;;;8.77;5.45;;;20.80;99.90;;;;;;5012853;28;20061;-46
2024/01/12 04:00:24;;;;;;;8.63;5.43;;;20.80;99.90;;;;;;5028460;23;20030;-56
2024/01/12 04:02:50;;;;;;;8.40;5.80;;;20.80;99.90;;;;;;5011042;28;20053;-57
2024/01/12 04:05:16;;;;;;;12.23;5.57;;;20.80;99.90;;;;;;5014899;28;20429;-58
2024/01/12 04:07:42;;;;;;;7.85;5.15;;;20.80;99.90;;;;;;5014920;28;20480;-57
2024/01/12 04:10:08;;;;;;;7.80;5.47;;;20.80;99.90;;;;;;5015052;28;20105;-57
2024/01/12 04:12:34;;;;;;;7.50;4.88;;;20.80;99.90;;;;;;5015210;28;20113;-57
2024/01/12 04:15:00;;;;;;;11.13;5.20;;;20.80;99.90;;;;;;5014858;28;20029;-57
2024/01/12 04:17:25;;;;;;;12.10;5.97;;;20.70;99.90;;;;;;5014834;28;20521;-57
2024/01/12 04:19:51;;;;;;;9.18;5.38;;;20.70;99.90;;;;;;5013517;28;20022;-57
2024/01/12 04:22:17;;;;;;;12.00;6.22;;;20.70;99.90;;;;;;5014603;28;20045;-58
2024/01/12 04:24:43;;;;;;;9.77;5.53;;;20.70;99.90;;;;;;5014544;28;20054;-57
2024/01/12 04:27:08;;;;;;;10.82;5.57;;;20.70;99.90;;;;;;5014658;28;20053;-57
2024/01/12 04:29:34;;;;;;;22.75;5.05;;;20.70;99.90;;;;;;5014679;28;20030;-58
2024/01/12 04:32:00;;;;;;;16.50;6.45;;;20.70;99.90;;;;;;5014428;28;20026;-57
2024/01/12 04:34:26;;;;;;;11.25;5.95;;;20.70;99.90;;;;;;5014489;28;20095;-57
2024/01/12 04:36:55;;;;;;;9.75;5.63;;;20.70;99.90;;;;;;5014440;28;20470;-57
2024/01/12 04:39:21;;;;;;;11.50;5.25;;;20.60;99.90;;;;;;5012968;28;20033;-57
2024/01/12 04:41:47;;;;;;;13.65;5.68;;;20.60;99.90;;;;;;5014232;28;20429;-57
2024/01/12 04:44:13;;;;;;;12.75;6.15;;;20.60;99.90;;;;;;5014396;28;20034;-57
2024/01/12 04:46:42;;;;;;;12.05;5.97;;;20.60;99.90;;;;;;5014141;28;20481;-57
2024/01/12 04:49:08;;;;;;;8.98;5.28;;;20.60;99.90;;;;;;5014372;28;20430;-57
2024/01/12 04:51:34;;;;;;;10.20;4.95;;;20.60;99.90;;;;;;5014423;28;20026;-57
2024/01/12 04:53:59;;;;;;;9.40;6.10;;;20.60;99.90;;;;;;5014155;28;20022;-57
2024/01/12 04:56:25;;;;;;;12.43;6.22;;;20.60;99.90;;;;;;5014001;28;20036;-56
2024/01/12 04:58:51;;;;;;;11.32;5.25;;;20.60;99.90;;;;;;5014055;28;20029;-56
2024/01/12 05:01:17;;;;;;;9.27;5.18;;;20.60;99.90;;;;;;5014345;28;20045;-55
2024/01/12 05:03:43;;;;;;;8.73;5.18;;;20.60;99.90;;;;;;5011880;28;20409;-57
2024/01/12 05:06:09;;;;;;;9.73;5.72;;;20.60;99.90;;;;;;5013830;28;20022;-57
2024/01/12 05:08:36;;;;;;;8.75;5.43;;;20.60;99.90;;;;;;5014144;28;20030;-57
2024/01/12 05:11:02;;;;;;;10.60;6.28;;;20.50;99.90;;;;;;5013766;28;20474;-57
2024/01/12 05:13:28;;;;;;;9.07;5.75;;;20.50;99.90;;;;;;5013760;28;20420;-57
2024/01/12 05:15:55;;;;;;;11.38;5.82;;;20.50;99.90;;;;;;5013790;28;20440;-56
2024/01/12 05:18:21;;;;;;;9.93;5.47;;;20.50;99.90;;;;;;5013723;28;20025;-57
2024/01/12 05:20:47;;;;;;;8.45;4.85;;;20.50;99.90;;;;;;5013727;28;20440;-59
2024/01/12 05:23:13;;;;;;;12.10;5.50;;;20.50;99.90;;;;;;5013533;28;20130;-57
2024/01/12 05:25:39;;;;;;;8.93;5.63;;;20.50;99.90;;;;;;5013641;28;20102;-57
2024/01/12 05:28:04;;;;;;;8.77;4.38;;;20.50;99.90;;;;;;5013777;28;20049;-57
2024/01/12 05:30:31;;;;;;;12.43;6.18;;;20.50;99.90;;;;;;5013380;28;20488;-57
2024/01/12 05:32:56;;;;;;;9.98;5.70;;;20.50;99.90;;;;;;5012245;28;20029;-58
2024/01/12 05:35:22;;;;;;;11.07;5.15;;;20.50;99.90;;;;;;5012046;28;20033;-58
2024/01/12 05:37:48;;;;;;;10.75;5.40;;;20.40;99.90;;;;;;5013417;28;20489;-58
2024/01/12 05:40:14;;;;;;;8.25;5.35;;;20.40;99.90;;;;;;5012113;28;20037;-58
2024/01/12 05:42:39;;;;;;;8.85;4.97;;;20.40;99.90;;;;;;5013049;28;20076;-58
2024/01/12 05:45:06;;;;;;;9.93;5.40;;;20.50;99.90;;;;;;5012117;28;20482;-58
2024/01/12 05:47:32;;;;;;;8.73;5.47;;;20.40;99.90;;;;;;5013266;28;20105;-58
2024/01/12 05:49:57;;;;;;;10.32;4.97;;;20.40;99.90;;;;;;5013074;28;20566;-59
2024/01/12 05:52:24;;;;;;;9.13;5.28;;;20.40;99.90;;;;;;5011775;28;20076;-58
2024/01/12 05:54:51;;;;;;;8.57;4.70;;;20.40;99.90;;;;;;5013079;28;20037;-58
2024/01/12 05:57:18;;;;;;;10.23;4.95;;;20.40;99.90;;;;;;5013223;28;20635;-57
2024/01/12 05:59:43;;;;;;;11.27;5.95;;;20.40;99.90;;;;;;5013196;28;20485;-60
2024/01/12 06:02:13;;;;;;;13.38;5.45;;;20.30;99.90;;;;;;5012291;28;20058;-58
2024/01/12 06:04:39;;;;;;;10.00;5.30;;;20.40;99.90;;;;;;5013174;28;20529;-58
2024/01/12 06:07:05;;;;;;;8.05;5.47;;;20.30;99.90;;;;;;5012809;28;20156;-58
2024/01/12 06:09:30;;;;;;;10.68;4.93;;;20.30;99.90;;;;;;5012924;28;20032;-57
2024/01/12 06:11:56;;;;;;;9.45;4.55;;;20.30;99.90;;;;;;5010597;28;20033;-57
2024/01/12 06:14:22;;;;;;;8.05;4.82;;;20.30;99.90;;;;;;5012091;28;20462;-58
2024/01/12 06:16:48;;;;;;;10.70;5.15;;;20.30;99.90;;;;;;5011289;28;20025;-56
2024/01/12 06:19:14;;;;;;;8.25;4.43;;;20.30;99.90;;;;;;5012599;28;20084;-57
2024/01/12 06:21:40;;;;;;;10.60;4.95;;;20.20;99.90;;;;;;5012638;28;20041;-58
2024/01/12 06:24:08;;;;;;;12.75;5.35;;;20.20;99.90;;;;;;5012951;28;20030;-58
2024/01/12 06:26:34;;;;;;;8.50;4.80;;;20.20;99.90;;;;;;5012600;28;20030;-57
2024/01/12 06:29:00;;;;;;;8.55;4.50;;;20.20;99.90;;;;;;5012565;28;20108;-58
2024/01/12 06:31:31;;;;;;;9.50;5.15;;;20.20;99.90;;;;;;5012444;28;20491;-57
2024/01/12 06:33:56;;;;;;;11.10;5.18;;;20.20;99.90;;;;;;5012493;28;20045;-58
2024/01/12 06:36:22;;;;;;;7.78;5.03;;;20.20;99.90;;;;;;5012372;28;20064;-58
2024/01/12 06:38:48;;;;;;;8.38;4.57;;;20.20;99.90;;;;;;5012462;28;20080;-57
2024/01/12 06:41:14;;;;;;;10.55;5.50;;;20.20;99.90;;;;;;5012331;28;20030;-57
2024/01/12 06:43:39;;;;;;;8.98;5.45;;;20.20;99.90;;;;;;5012431;28;20038;-58
2024/01/12 06:46:06;;;;;;;7.47;4.60;;;20.20;99.90;;;;;;5012393;28;20021;-57
2024/01/12 06:48:32;;;;;;;10.77;5.28;;;20.20;99.90;;;;;;5012175;28;20077;-57
2024/01/12 06:50:58;;;;;;;8.40;4.28;;;20.10;99.90;;;;;;5012299;28;20093;-57
2024/01/12 06:53:23;;;;;;;7.22;4.47;;;20.10;99.90;;;;;;5011087;28;20073;-57
2024/01/12 06:55:49;;;;;;;7.40;4.15;;;20.10;99.90;;;;;;5012377;28;20092;-57
2024/01/12 06:58:15;;;;;;;7.65;4.60;;;20.10;99.90;;;;;;5011078;28;20033;-57
2024/01/12 07:00:41;;;;;;;11.75;5.00;;;20.10;99.90;;;;;;5012211;28;20105;-56
2024/01/12 07:03:07;;;;;;;9.85;4.55;;;20.10;99.90;;;;;;5011933;28;20125;-56
2024/01/12 07:05:33;;;;;;;12.80;4.13;;;20.10;99.90;;;;;;5012140;28;20026;-57
2024/01/12 07:07:58;;;;;;;7.38;4.40;;;20.10;99.90;;;;;;5003308;28;20062;-57
2024/01/12 07:10:24;;;;;;;8.40;4.28;;;20.10;99.90;;;;;;5008025;28;20113;-57
2024/01/12 07:12:53;;;;;;;9.18;4.50;;;20.10;99.90;;;;;;5011696;28;20382;-57
2024/01/12 07:15:20;;;;;;;9.98;4.53;;;20.00;99.90;;;;;;5011772;28;20049;-57
2024/01/12 07:17:49;;;;;;;8.27;4.47;;;20.00;99.90;;;;;;5010649;28;20421;-57
2024/01/12 07:20:15;;;;;;;7.63;4.18;;;20.00;99.90;;;;;;5010766;28;20022;-57
2024/01/12 07:22:42;;;;;;;8.82;4.32;;;20.00;99.90;;;;;;5011295;28;20026;-57
2024/01/12 07:25:08;;;;;;;9.63;4.50;;;20.00;99.90;;;;;;5011199;28;20034;-60
2024/01/12 07:27:33;;;;;;;8.32;4.10;;;20.00;99.90;;;;;;5014374;28;20512;-58
2024/01/12 07:29:59;;;;;;;9.23;4.30;;;20.00;99.90;;;;;;5014428;28;20029;-58
2024/01/12 07:32:25;;;;;;;8.05;4.78;;;20.00;99.90;;;;;;5015585;28;20433;-58
2024/01/12 07:34:51;;;;;;;10.32;5.10;;;20.00;99.90;;;;;;5015457;28;20030;-59
2024/01/12 07:37:17;;;;;;;13.05;4.95;;;20.00;99.90;;;;;;4997921;28;20116;-57
2024/01/12 07:39:43;;;;;;;8.88;4.18;;;20.00;99.90;;;;;;5015757;28;20061;-58
2024/01/12 07:42:09;;;;;;;6.80;4.18;;;20.00;99.90;;;;;;5015318;28;20065;-57
2024/01/12 07:44:37;;;;;;;11.88;5.45;;;19.90;99.90;;;;;;5015449;28;20420;-58
2024/01/12 07:47:03;;;;;;;8.80;4.43;;;20.00;99.90;;;;;;5015346;28;20060;-58
2024/01/12 07:49:28;;;;;;;12.93;4.82;;;19.90;99.90;;;;;;5015448;28;20050;-58
2024/01/12 07:51:54;;;;;;;7.65;4.60;;;19.90;99.90;;;;;;5015283;28;20030;-58
2024/01/12 07:54:20;;;;;;;8.20;4.45;;;19.90;99.90;;;;;;5015175;28;20081;-58
2024/01/12 07:56:46;;;;;;;7.18;4.68;;;19.90;99.90;;;;;;5015448;28;20042;-58
2024/01/12 07:59:12;;;;;;;9.60;5.35;;;19.90;99.90;;;;;;5015319;28;20030;-58
2024/01/12 08:01:40;;;;;;;7.82;4.65;;;19.90;99.90;;;;;;5014898;28;20072;-58
2024/01/12 08:04:06;;;;;;;7.07;4.22;;;19.90;99.90;;;;;;5013686;28;20367;-58
2024/01/12 08:06:32;;;;;;;12.77;5.30;;;19.90;99.90;;;;;;5014989;28;20029;-58
2024/01/12 08:08:58;;;;;;;8.05;4.78;;;19.90;99.90;;;;;;5014980;28;20541;-59
2024/01/12 08:11:24;;;;;;;9.50;5.50;;;19.90;99.90;;;;;;5013610;28;20026;-58
2024/01/12 08:13:50;;;;;;;13.35;5.30;;;19.90;99.90;;;;;;5014849;28;20489;-58
2024/01/12 08:16:15;;;;;;;8.90;5.25;;;19.90;99.90;;;;;;5014901;28;20486;-58
2024/01/12 08:18:42;;;;;;;9.05;4.95;;;19.90;99.90;;;;;;5014873;28;20037;-57
2024/01/12 08:21:08;;;;;;;8.15;5.25;;;19.90;99.90;;;;;;5014836;28;20084;-57
2024/01/12 08:23:33;;;;;;;9.35;4.82;;;19.90;99.90;;;;;;5014638;28;20112;-57
2024/01/12 08:25:59;;;;;;;9.48;5.35;;;19.80;99.90;;;;;;5014518;28;20389;-58
2024/01/12 08:28:25;;;;;;;8.52;5.15;;;19.80;99.90;;;;;;5013249;28;20033;-57
2024/01/12 08:30:51;;;;;;;9.25;5.57;;;19.80;99.90;;;;;;5014483;28;20022;-58
2024/01/12 08:33:17;;;;;;;13.15;5.93;;;19.80;99.90;;;;;;5014669;28;20026;-58
2024/01/12 08:35:43;;;;;;;12.30;5.78;;;19.80;99.90;;;;;;5013184;28;20056;-58
2024/01/12 08:38:08;;;;;;;10.43;6.07;;;19.80;99.90;;;;;;5013445;28;20026;-57
2024/01/12 08:40:34;;;;;;;10.00;5.75;;;19.80;99.90;;;;;;5014376;28;20432;-57
2024/01/12 08:43:01;;;;;;;10.02;5.47;;;19.80;99.90;;;;;;5014198;28;20429;-58
2024/01/12 08:45:27;;;;;;;9.43;5.57;;;19.80;99.90;;;;;;5014158;28;20423;-58
2024/01/12 08:47:53;;;;;;;10.20;5.28;;;19.80;99.90;;;;;;5012850;28;20068;-58
2024/01/12 08:50:18;;;;;;;15.20;5.85;;;19.80;99.90;;;;;;5014450;28;20022;-57
2024/01/12 08:52:44;;;;;;;12.20;6.85;;;19.80;99.90;;;;;;5014181;28;20038;-58
2024/01/12 08:55:11;;;;;;;11.30;5.47;;;19.80;99.90;;;;;;5014009;28;20030;-58
2024/01/12 08:57:37;;;;;;;14.65;6.80;;;19.80;99.90;;;;;;5014032;28;20033;-58
2024/01/12 09:00:03;;;;;;;10.25;5.85;;;19.80;99.90;;;;;;5013990;28;20022;-58
2024/01/12 09:02:29;;;;;;;8.35;5.80;;;19.80;99.90;;;;;;5012397;28;20050;-58
2024/01/12 09:04:55;;;;;;;10.73;6.07;;;19.80;99.90;;;;;;5013776;28;20448;-58
2024/01/12 09:07:22;;;;;;;12.30;7.10;;;19.80;99.90;;;;;;5012371;28;20030;-58
2024/01/12 09:09:47;;;;;;;10.23;6.07;;;19.80;99.90;;;;;;5012667;28;20026;-58
2024/01/12 09:12:14;;;;;;;8.98;5.82;;;19.80;99.90;;;;;;5013694;28;20085;-58
2024/01/12 09:14:40;;;;;;;10.60;6.30;;;19.80;99.90;;;;;;5013693;28;20185;-58
2024/01/12 09:17:06;;;;;;;12.52;6.60;;;19.80;99.90;;;;;;5013880;28;20076;-57
2024/01/12 09:19:32;;;;;;;11.77;6.35;;;19.80;99.90;;;;;;5013676;28;20100;-57
2024/01/12 09:21:57;;;;;;;10.80;6.63;;;19.80;99.90;;;;;;5013466;28;20033;-58
2024/01/12 09:24:23;;;;;;;12.18;6.30;;;19.80;99.90;;;;;;5013489;28;20101;-57
2024/01/12 09:26:49;;;;;;;10.52;6.43;;;19.80;99.90;;;;;;5013771;28;20022;-58
2024/01/12 09:29:15;;;;;;;11.65;7.03;;;19.80;99.90;;;;;;5013422;28;20030;-57
2024/01/12 09:31:40;;;;;;;10.40;6.70;;;19.80;99.90;;;;;;5013353;28;20117;-57
2024/01/12 09:34:06;;;;;;;10.52;6.40;;;19.80;99.90;;;;;;5013483;28;20033;-57
2024/01/12 09:36:32;;;;;;;12.63;6.90;;;19.80;99.90;;;;;;5011986;28;20374;-58
2024/01/12 09:38:58;;;;;;;10.43;6.93;;;19.80;99.90;;;;;;5013310;28;20156;-58
2024/01/12 09:41:46;;;;;;;12.32;7.35;;;19.80;99.90;;;;;;5013398;28;20556;-58
2024/01/12 09:44:14;;;;;;;12.70;6.72;;;19.70;99.90;;;;;;5013177;28;20541;-57
2024/01/12 09:47:00;;;;;;;;;;;19.80;99.90;;;;;;5013597;28;20478;-57
2024/01/12 09:49:30;;;;;;;12.57;6.90;;;19.80;99.90;;;;;;5012515;28;20377;-57
2024/01/12 09:51:57;;;;;;;12.55;6.85;;;19.80;99.90;;;;;;5013228;28;20389;-57
2024/01/12 09:54:23;;;;;;;13.93;7.28;;;19.80;99.90;;;;;;5013025;28;20026;-57
2024/01/12 09:56:51;;;;;;;11.88;7.00;;;19.80;99.90;;;;;;5013212;28;20030;-57
2024/01/12 09:59:21;;;;;;;9.73;6.65;;;19.80;99.90;;;;;;5013094;28;20036;-57
2024/01/12 10:01:48;;;;;;;14.57;8.05;;;19.80;99.90;;;;;;5012762;28;20406;-57
2024/01/12 10:04:14;;;;;;;15.43;8.23;;;19.80;99.90;;;;;;5012923;28;20046;-58
2024/01/12 10:06:40;;;;;;;14.50;8.38;;;19.80;99.90;;;;;;5012768;28;20026;-58
2024/01/12 10:09:07;;;;;;;18.45;8.50;;;19.80;99.90;;;;;;5012646;28;20492;-57
2024/01/12 10:11:33;;;;;;;14.85;8.48;;;19.80;99.90;;;;;;5012643;28;20025;-57
2024/01/12 10:13:59;;;;;;;15.77;8.00;;;19.80;99.90;;;;;;5012699;28;20022;-57
2024/01/12 10:16:31;;;;;;;12.15;7.63;;;19.90;99.90;;;;;;5012612;28;20032;-57
2024/01/12 10:19:00;;;;;;;15.07;7.88;;;19.80;99.90;;;;;;5012476;28;20022;-57
2024/01/12 10:21:26;;;;;;;12.88;8.02;;;19.90;99.90;;;;;;5012520;28;20026;-57
2024/01/12 10:24:06;;;;;;;15.93;7.72;;;19.90;99.90;;;;;;5007463;28;20159;-57
2024/01/12 10:26:32;;;;;;;14.82;8.80;;;19.90;99.90;;;;;;4993653;28;20459;-57
2024/01/12 10:29:02;;;;;;;14.05;8.82;;;19.90;99.90;;;;;;5009872;28;20029;-57
2024/01/12 10:31:29;;;;;;;13.27;8.27;;;19.90;99.90;;;;;;4998550;28;20054;-57
2024/01/12 10:33:59;;;;;;;13.45;7.70;;;20.00;99.90;;;;;;4994097;28;20030;-57
2024/01/12 10:36:27;;;;;;;12.52;8.13;;;19.90;99.90;;;;;;5010894;28;20527;-57
2024/01/12 10:38:56;;;;;;;14.40;8.90;;;19.90;99.90;;;;;;4995199;28;20026;-57
2024/01/12 10:41:24;;;;;;;13.20;8.43;;;19.90;99.90;;;;;;4996103;28;20478;-57
2024/01/12 10:43:57;;;;;;;15.65;8.25;;;20.00;99.90;;;;;;4997957;28;20034;-57
2024/01/12 10:46:48;;;;;;;15.48;8.43;;;19.90;99.90;;;;;;5012252;28;20101;-57
2024/01/12 10:49:18;;;;;;;15.95;8.40;;;20.00;99.90;;;;;;5011389;28;20026;-57
2024/01/12 10:52:21;;;;;;;13.88;7.97;;;20.00;99.90;;;;;;5012026;28;20026;-58
2024/01/12 10:55:13;;;;;;;13.88;7.82;;;20.00;99.90;;;;;;5011453;28;20417;-58
2024/01/12 10:57:42;;;;;;;14.13;7.93;;;20.00;99.90;;;;;;5011002;28;20058;-57
2024/01/12 11:00:10;;;;;;;11.98;7.93;;;20.00;99.90;;;;;;5012263;28;20101;-57
2024/01/12 11:02:39;;;;;;;14.40;8.95;;;20.00;99.90;;;;;;5015487;28;20048;-57
2024/01/12 11:05:11;;;;;;;14.40;7.63;;;20.00;99.90;;;;;;5016128;28;20034;-57
2024/01/12 11:07:39;;;;;;;14.07;7.85;;;20.00;99.90;;;;;;5015995;28;20029;-57
2024/01/12 11:10:07;;;;;;;13.60;8.10;;;20.00;99.90;;;;;;5015996;28;20381;-57
2024/01/12 11:12:36;;;;;;;;;;;20.10;99.90;;;;;;5016439;28;20120;-58
2024/01/12 11:15:04;;;;;;;14.00;7.55;;;20.10;99.90;;;;;;5014725;28;20385;-57
2024/01/12 11:17:33;;;;;;;14.05;7.97;;;20.10;99.90;;;;;;5015939;28;20030;-57
2024/01/12 11:20:10;;;;;;;16.15;8.77;;;20.10;99.90;;;;;;5015976;28;20444;-57
2024/01/12 11:22:46;;;;;;;16.40;8.50;;;20.10;99.90;;;;;;5014374;28;20077;-57
2024/01/12 11:25:14;;;;;;;15.38;7.85;;;20.10;99.90;;;;;;5015672;28;20030;-57
2024/01/12 11:27:42;;;;;;;13.23;7.13;;;20.10;99.90;;;;;;5015618;28;20021;-57
2024/01/12 11:30:09;;;;;;;;;;;20.10;99.90;;;;;;5016078;28;20029;-57
2024/01/12 11:32:35;;;;;;;15.55;7.72;;;20.20;99.90;;;;;;5014375;28;19901;-57
2024/01/12 11:35:13;;;;;;;10.73;7.20;;;20.20;99.90;;;;;;5015511;28;20075;-57
2024/01/12 11:37:39;;;;;;;15.05;8.45;;;20.20;99.90;;;;;;5015509;28;20028;-57
2024/01/12 11:40:10;;;;;;;12.35;7.97;;;20.20;99.90;;;;;;5015377;28;20034;-57
2024/01/12 11:42:43;;;;;;;15.10;7.75;;;20.20;99.90;;;;;;5013923;28;20065;-56
2024/01/12 11:45:10;;;;;;;14.57;7.45;;;20.20;99.90;;;;;;5015507;28;20030;-57
2024/01/12 11:47:41;;;;;;;12.35;7.20;;;20.20;99.90;;;;;;5015221;28;20018;-57
2024/01/12 11:50:08;;;;;;;14.35;7.85;;;20.20;99.90;;;;;;5015414;28;20100;-57
2024/01/12 11:52:34;;;;;;;13.50;7.28;;;20.20;99.90;;;;;;5015249;28;20041;-57
2024/01/12 11:55:00;;;;;;;14.05;7.47;;;20.20;99.90;;;;;;5015032;28;20083;-57
2024/01/12 11:57:26;;;;;;;13.52;7.57;;;20.30;99.90;;;;;;5015323;28;20109;-58
2024/01/12 11:59:57;;;;;;;13.77;8.02;;;20.30;99.90;;;;;;5015126;28;20021;-57
2024/01/12 12:02:24;;;;;;;13.18;6.50;;;20.30;99.90;;;;;;5014642;28;20084;-57
2024/01/12 12:04:51;;;;;;;11.90;6.45;;;20.30;99.90;;;;;;5014943;28;20113;-57
2024/01/12 12:07:24;;;;;;;;;;;20.40;99.90;;;;;;5015289;28;20021;-57
2024/01/12 12:09:50;;;;;;;13.15;7.35;;;20.40;99.90;;;;;;5014932;28;20149;-57
2024/01/12 12:12:15;;;;;;;11.30;6.82;;;20.40;99.90;;;;;;5014705;28;20113;-58
2024/01/12 12:15:06;;;;;;;14.57;7.25;;;20.40;99.90;;;;;;4997380;28;20386;-58
2024/01/12 12:17:35;;;;;;;10.40;6.40;;;20.40;99.90;;;;;;5014603;28;20018;-58
2024/01/12 12:20:03;;;;;;;17.63;7.35;;;20.40;99.90;;;;;;5014604;28;20026;-58
2024/01/12 12:22:30;;;;;;;10.90;7.43;;;20.50;99.90;;;;;;5014711;28;20038;-58
2024/01/12 12:24:55;;;;;;;11.80;6.13;;;20.50;99.90;;;;;;5014801;28;20026;-58
2024/01/12 12:27:23;;;;;;;14.75;7.20;;;20.40;99.90;;;;;;5013121;28;20022;-58
2024/01/12 12:29:50;;;;;;;11.30;6.20;;;20.50;99.90;;;;;;5013262;28;20032;-58
2024/01/12 12:32:16;;;;;;;11.05;6.72;;;20.50;99.90;;;;;;5014439;28;20037;-58
2024/01/12 12:34:45;;;;;;;15.25;6.68;;;20.50;99.90;;;;;;5014423;28;20026;-57
2024/01/12 12:37:16;;;;;;;10.95;5.93;;;20.50;99.90;;;;;;5013054;28;20030;-58
2024/01/12 12:39:42;;;;;;;10.05;6.75;;;20.50;99.90;;;;;;5014388;28;20028;-57